sensor_id;sensor_type;location;lat;lon;timestamp;P1;durP1;ratioP1;P2;durP2;ratioP2
61644;SDS011;47553;52.428;13.382;2023-04-24T00:01:08;2.22;;;0.70;;
61644;SDS011;47553;52.428;13.382;2023-04-24T00:03:10;2.15;;;0.73;;
61644;SDS011;47553;52.428;13.382;2023-04-24T00:05:12;3.35;;;0.82;;
61644;SDS011;47553;52.428;13.382;2023-04-24T00:07:14;2.33;;;0.80;;
61644;SDS011;47553;52.428;13.382;2023-04-24T00:09:16;2.42;;;0.80;;
61644;SDS011;47553;52.428;13.382;2023-04-24T00:13:20;2.70;;;0.75;;
61644;SDS011;47553;52.428;13.382;2023-04-24T00:15:22;3.08;;;0.80;;
61644;SDS011;47553;52.428;13.382;2023-04-24T00:17:23;2.20;;;0.85;;
61644;SDS011;47553;52.428;13.382;2023-04-24T00:19:25;3.17;;;0.80;;
61644;SDS011;47553;52.428;13.382;2023-04-24T00:21:27;2.40;;;0.90;;
61644;SDS011;47553;52.428;13.382;2023-04-24T00:23:28;4.00;;;1.00;;
61644;SDS011;47553;52.428;13.382;2023-04-24T00:27:32;3.90;;;0.95;;
61644;SDS011;47553;52.428;13.382;2023-04-24T00:29:34;2.42;;;0.77;;
61644;SDS011;47553;52.428;13.382;2023-04-24T00:31:36;2.30;;;0.80;;
61644;SDS011;47553;52.428;13.382;2023-04-24T00:33:37;1.85;;;0.77;;
61644;SDS011;47553;52.428;13.382;2023-04-24T00:35:39;1.60;;;0.80;;
61644;SDS011;47553;52.428;13.382;2023-04-24T00:39:42;2.38;;;0.80;;
61644;SDS011;47553;52.428;13.382;2023-04-24T00:41:44;4.03;;;1.00;;
61644;SDS011;47553;52.428;13.382;2023-04-24T00:43:47;2.42;;;0.80;;
61644;SDS011;47553;52.428;13.382;2023-04-24T00:45:49;2.20;;;0.75;;
61644;SDS011;47553;52.428;13.382;2023-04-24T00:47:51;2.10;;;0.80;;
61644;SDS011;47553;52.428;13.382;2023-04-24T00:49:54;2.40;;;0.80;;
61644;SDS011;47553;52.428;13.382;2023-04-24T00:51:55;2.15;;;0.80;;
61644;SDS011;47553;52.428;13.382;2023-04-24T00:55:58;1.98;;;0.73;;
61644;SDS011;47553;52.428;13.382;2023-04-24T00:58:01;4.10;;;1.00;;
61644;SDS011;47553;52.428;13.382;2023-04-24T01:00:05;2.78;;;1.00;;
61644;SDS011;47553;52.428;13.382;2023-04-24T01:02:07;3.63;;;0.93;;
61644;SDS011;47553;52.428;13.382;2023-04-24T01:04:11;3.10;;;1.27;;
61644;SDS011;47553;52.428;13.382;2023-04-24T01:06:13;2.97;;;0.90;;
61644;SDS011;47553;52.428;13.382;2023-04-24T01:08:15;3.03;;;0.88;;
61644;SDS011;47553;52.428;13.382;2023-04-24T01:10:18;4.50;;;1.30;;
61644;SDS011;47553;52.428;13.382;2023-04-24T01:12:20;2.75;;;0.98;;
61644;SDS011;47553;52.428;13.382;2023-04-24T01:16:25;2.05;;;0.90;;
61644;SDS011;47553;52.428;13.382;2023-04-24T01:18:27;3.67;;;0.80;;
61644;SDS011;47553;52.428;13.382;2023-04-24T01:20:29;2.80;;;0.80;;
61644;SDS011;47553;52.428;13.382;2023-04-24T01:22:32;2.50;;;0.80;;
61644;SDS011;47553;52.428;13.382;2023-04-24T01:24:34;2.50;;;0.82;;
61644;SDS011;47553;52.428;13.382;2023-04-24T01:26:36;2.70;;;0.90;;
61644;SDS011;47553;52.428;13.382;2023-04-24T01:28:37;2.15;;;0.80;;
61644;SDS011;47553;52.428;13.382;2023-04-24T01:30:39;2.42;;;0.80;;
61644;SDS011;47553;52.428;13.382;2023-04-24T01:32:41;2.35;;;1.00;;
61644;SDS011;47553;52.428;13.382;2023-04-24T01:34:43;2.60;;;0.85;;
61644;SDS011;47553;52.428;13.382;2023-04-24T01:36:46;2.33;;;0.70;;
61644;SDS011;47553;52.428;13.382;2023-04-24T01:38:50;3.42;;;0.88;;
61644;SDS011;47553;52.428;13.382;2023-04-24T01:40:51;2.20;;;0.73;;
61644;SDS011;47553;52.428;13.382;2023-04-24T01:42:54;1.85;;;0.60;;
61644;SDS011;47553;52.428;13.382;2023-04-24T01:44:55;1.70;;;0.80;;
61644;SDS011;47553;52.428;13.382;2023-04-24T01:46:58;1.65;;;0.70;;
61644;SDS011;47553;52.428;13.382;2023-04-24T01:49:01;1.80;;;0.82;;
61644;SDS011;47553;52.428;13.382;2023-04-24T01:51:03;2.45;;;0.65;;
61644;SDS011;47553;52.428;13.382;2023-04-24T01:53:05;2.42;;;0.80;;
61644;SDS011;47553;52.428;13.382;2023-04-24T01:55:08;3.08;;;0.90;;
61644;SDS011;47553;52.428;13.382;2023-04-24T01:57:10;1.85;;;0.82;;
61644;SDS011;47553;52.428;13.382;2023-04-24T01:59:12;3.40;;;1.00;;
61644;SDS011;47553;52.428;13.382;2023-04-24T02:03:16;3.70;;;1.20;;
61644;SDS011;47553;52.428;13.382;2023-04-24T02:05:18;3.03;;;1.20;;
61644;SDS011;47553;52.428;13.382;2023-04-24T02:07:19;3.00;;;1.10;;
61644;SDS011;47553;52.428;13.382;2023-04-24T02:09:21;2.40;;;0.90;;
61644;SDS011;47553;52.428;13.382;2023-04-24T02:13:26;4.10;;;0.85;;
61644;SDS011;47553;52.428;13.382;2023-04-24T02:17:28;1.95;;;0.80;;
61644;SDS011;47553;52.428;13.382;2023-04-24T02:19:30;2.65;;;0.85;;
61644;SDS011;47553;52.428;13.382;2023-04-24T02:21:32;2.70;;;0.90;;
61644;SDS011;47553;52.428;13.382;2023-04-24T02:23:34;2.20;;;0.90;;
61644;SDS011;47553;52.428;13.382;2023-04-24T02:25:35;2.35;;;0.80;;
61644;SDS011;47553;52.428;13.382;2023-04-24T02:29:39;2.75;;;0.95;;
61644;SDS011;47553;52.428;13.382;2023-04-24T02:31:41;2.35;;;0.85;;
61644;SDS011;47553;52.428;13.382;2023-04-24T02:33:43;1.60;;;0.73;;
61644;SDS011;47553;52.428;13.382;2023-04-24T02:35:44;2.28;;;0.82;;
61644;SDS011;47553;52.428;13.382;2023-04-24T02:39:47;2.60;;;0.70;;
61644;SDS011;47553;52.428;13.382;2023-04-24T02:43:51;2.22;;;0.80;;
61644;SDS011;47553;52.428;13.382;2023-04-24T02:45:53;3.38;;;0.85;;
61644;SDS011;47553;52.428;13.382;2023-04-24T02:47:54;2.85;;;0.80;;
61644;SDS011;47553;52.428;13.382;2023-04-24T02:49:56;2.10;;;0.80;;
61644;SDS011;47553;52.428;13.382;2023-04-24T02:53:59;4.13;;;0.90;;
61644;SDS011;47553;52.428;13.382;2023-04-24T02:58:02;3.20;;;1.10;;
61644;SDS011;47553;52.428;13.382;2023-04-24T03:00:06;3.47;;;1.00;;
61644;SDS011;47553;52.428;13.382;2023-04-24T03:02:08;2.97;;;0.90;;
61644;SDS011;47553;52.428;13.382;2023-04-24T03:06:12;1.95;;;0.80;;
61644;SDS011;47553;52.428;13.382;2023-04-24T03:10:15;1.50;;;0.70;;
61644;SDS011;47553;52.428;13.382;2023-04-24T03:12:16;3.45;;;0.90;;
61644;SDS011;47553;52.428;13.382;2023-04-24T03:14:18;2.80;;;0.90;;
61644;SDS011;47553;52.428;13.382;2023-04-24T03:18:22;1.70;;;0.70;;
61644;SDS011;47553;52.428;13.382;2023-04-24T03:20:24;2.25;;;0.80;;
61644;SDS011;47553;52.428;13.382;2023-04-24T03:22:25;1.67;;;0.73;;
61644;SDS011;47553;52.428;13.382;2023-04-24T03:24:27;1.50;;;0.70;;
61644;SDS011;47553;52.428;13.382;2023-04-24T03:26:29;2.83;;;0.80;;
61644;SDS011;47553;52.428;13.382;2023-04-24T03:30:31;2.83;;;0.73;;
61644;SDS011;47553;52.428;13.382;2023-04-24T03:32:34;2.17;;;0.63;;
61644;SDS011;47553;52.428;13.382;2023-04-24T03:34:36;1.90;;;0.80;;
61644;SDS011;47553;52.428;13.382;2023-04-24T03:36:37;3.75;;;0.80;;
61644;SDS011;47553;52.428;13.382;2023-04-24T03:38:39;2.88;;;0.90;;
61644;SDS011;47553;52.428;13.382;2023-04-24T03:40:41;1.25;;;0.60;;
61644;SDS011;47553;52.428;13.382;2023-04-24T03:44:43;2.17;;;0.70;;
61644;SDS011;47553;52.428;13.382;2023-04-24T03:46:45;2.50;;;0.70;;
61644;SDS011;47553;52.428;13.382;2023-04-24T03:50:49;3.97;;;0.80;;
61644;SDS011;47553;52.428;13.382;2023-04-24T03:54:52;2.35;;;0.70;;
61644;SDS011;47553;52.428;13.382;2023-04-24T03:58:55;3.88;;;0.90;;
61644;SDS011;47553;52.428;13.382;2023-04-24T04:00:56;2.97;;;0.90;;
61644;SDS011;47553;52.428;13.382;2023-04-24T04:05:01;3.03;;;1.23;;
61644;SDS011;47553;52.428;13.382;2023-04-24T04:07:03;3.20;;;1.10;;
61644;SDS011;47553;52.428;13.382;2023-04-24T04:11:06;2.72;;;0.77;;
61644;SDS011;47553;52.428;13.382;2023-04-24T04:15:09;2.08;;;0.65;;
61644;SDS011;47553;52.428;13.382;2023-04-24T04:17:11;2.92;;;0.60;;
61644;SDS011;47553;52.428;13.382;2023-04-24T04:21:15;3.28;;;0.70;;
61644;SDS011;47553;52.428;13.382;2023-04-24T04:23:16;3.38;;;0.70;;
61644;SDS011;47553;52.428;13.382;2023-04-24T04:25:18;3.75;;;0.90;;
61644;SDS011;47553;52.428;13.382;2023-04-24T04:27:20;3.20;;;1.00;;
61644;SDS011;47553;52.428;13.382;2023-04-24T04:31:23;2.78;;;0.93;;
61644;SDS011;47553;52.428;13.382;2023-04-24T04:33:24;2.42;;;0.90;;
61644;SDS011;47553;52.428;13.382;2023-04-24T04:37:29;2.85;;;1.00;;
61644;SDS011;47553;52.428;13.382;2023-04-24T04:39:30;3.25;;;1.10;;
61644;SDS011;47553;52.428;13.382;2023-04-24T04:41:32;3.85;;;1.35;;
61644;SDS011;47553;52.428;13.382;2023-04-24T04:45:35;4.32;;;1.10;;
61644;SDS011;47553;52.428;13.382;2023-04-24T04:47:36;3.88;;;1.17;;
61644;SDS011;47553;52.428;13.382;2023-04-24T04:49:38;3.60;;;1.10;;
61644;SDS011;47553;52.428;13.382;2023-04-24T04:51:40;3.70;;;1.17;;
61644;SDS011;47553;52.428;13.382;2023-04-24T04:53:44;5.57;;;1.50;;
61644;SDS011;47553;52.428;13.382;2023-04-24T04:55:46;3.45;;;1.20;;
61644;SDS011;47553;52.428;13.382;2023-04-24T04:57:48;5.05;;;1.40;;
61644;SDS011;47553;52.428;13.382;2023-04-24T05:01:51;3.80;;;1.23;;
61644;SDS011;47553;52.428;13.382;2023-04-24T05:05:54;4.57;;;1.40;;
61644;SDS011;47553;52.428;13.382;2023-04-24T05:07:55;5.13;;;1.27;;
61644;SDS011;47553;52.428;13.382;2023-04-24T05:09:58;3.72;;;1.42;;
61644;SDS011;47553;52.428;13.382;2023-04-24T05:12:00;4.65;;;1.40;;
61644;SDS011;47553;52.428;13.382;2023-04-24T05:16:03;3.50;;;1.20;;
61644;SDS011;47553;52.428;13.382;2023-04-24T05:18:05;4.47;;;1.23;;
61644;SDS011;47553;52.428;13.382;2023-04-24T05:22:08;3.13;;;1.27;;
61644;SDS011;47553;52.428;13.382;2023-04-24T05:24:09;3.50;;;1.20;;
61644;SDS011;47553;52.428;13.382;2023-04-24T05:26:12;3.30;;;1.35;;
61644;SDS011;47553;52.428;13.382;2023-04-24T05:28:14;3.58;;;1.50;;
61644;SDS011;47553;52.428;13.382;2023-04-24T05:30:16;4.07;;;1.65;;
61644;SDS011;47553;52.428;13.382;2023-04-24T05:32:17;3.67;;;1.40;;
61644;SDS011;47553;52.428;13.382;2023-04-24T05:34:19;3.78;;;1.27;;
61644;SDS011;47553;52.428;13.382;2023-04-24T05:38:22;3.55;;;1.30;;
61644;SDS011;47553;52.428;13.382;2023-04-24T05:40:23;4.07;;;1.50;;
61644;SDS011;47553;52.428;13.382;2023-04-24T05:44:27;3.45;;;1.50;;
61644;SDS011;47553;52.428;13.382;2023-04-24T05:48:30;4.97;;;1.50;;
61644;SDS011;47553;52.428;13.382;2023-04-24T05:50:32;3.13;;;1.30;;
61644;SDS011;47553;52.428;13.382;2023-04-24T05:52:36;3.50;;;1.30;;
61644;SDS011;47553;52.428;13.382;2023-04-24T05:56:39;3.97;;;1.70;;
61644;SDS011;47553;52.428;13.382;2023-04-24T05:58:44;3.50;;;1.60;;
61644;SDS011;47553;52.428;13.382;2023-04-24T06:00:46;4.28;;;1.52;;
61644;SDS011;47553;52.428;13.382;2023-04-24T06:02:48;4.90;;;1.92;;
61644;SDS011;47553;52.428;13.382;2023-04-24T06:04:50;6.45;;;2.10;;
61644;SDS011;47553;52.428;13.382;2023-04-24T06:06:52;4.07;;;1.83;;
61644;SDS011;47553;52.428;13.382;2023-04-24T06:08:53;4.38;;;1.90;;
61644;SDS011;47553;52.428;13.382;2023-04-24T06:12:56;3.83;;;1.40;;
61644;SDS011;47553;52.428;13.382;2023-04-24T06:17:00;3.80;;;1.50;;
61644;SDS011;47553;52.428;13.382;2023-04-24T06:21:03;4.68;;;1.50;;
61644;SDS011;47553;52.428;13.382;2023-04-24T06:25:06;5.93;;;1.60;;
61644;SDS011;47553;52.428;13.382;2023-04-24T06:27:08;4.13;;;1.52;;
61644;SDS011;47553;52.428;13.382;2023-04-24T06:29:10;4.00;;;1.52;;
61644;SDS011;47553;52.428;13.382;2023-04-24T06:31:13;3.78;;;1.50;;
61644;SDS011;47553;52.428;13.382;2023-04-24T06:33:16;5.13;;;1.60;;
61644;SDS011;47553;52.428;13.382;2023-04-24T06:35:22;3.83;;;1.52;;
61644;SDS011;47553;52.428;13.382;2023-04-24T06:37:23;3.35;;;1.38;;
61644;SDS011;47553;52.428;13.382;2023-04-24T06:39:25;3.70;;;1.50;;
61644;SDS011;47553;52.428;13.382;2023-04-24T06:43:29;3.47;;;1.40;;
61644;SDS011;47553;52.428;13.382;2023-04-24T06:45:31;3.60;;;1.50;;
61644;SDS011;47553;52.428;13.382;2023-04-24T06:49:35;3.70;;;1.45;;
61644;SDS011;47553;52.428;13.382;2023-04-24T06:51:37;4.03;;;1.58;;
61644;SDS011;47553;52.428;13.382;2023-04-24T06:55:40;5.03;;;1.50;;
61644;SDS011;47553;52.428;13.382;2023-04-24T06:59:43;6.00;;;1.52;;
61644;SDS011;47553;52.428;13.382;2023-04-24T07:01:45;3.85;;;1.60;;
61644;SDS011;47553;52.428;13.382;2023-04-24T07:03:48;5.55;;;1.70;;
61644;SDS011;47553;52.428;13.382;2023-04-24T07:05:50;3.95;;;1.45;;
61644;SDS011;47553;52.428;13.382;2023-04-24T07:09:52;4.50;;;1.30;;
61644;SDS011;47553;52.428;13.382;2023-04-24T07:11:54;2.95;;;1.10;;
61644;SDS011;47553;52.428;13.382;2023-04-24T07:13:55;3.15;;;1.10;;
61644;SDS011;47553;52.428;13.382;2023-04-24T07:15:57;3.60;;;1.25;;
61644;SDS011;47553;52.428;13.382;2023-04-24T07:17:59;3.20;;;1.20;;
61644;SDS011;47553;52.428;13.382;2023-04-24T07:20:04;3.10;;;1.20;;
61644;SDS011;47553;52.428;13.382;2023-04-24T07:22:07;3.30;;;1.20;;
61644;SDS011;47553;52.428;13.382;2023-04-24T07:24:08;3.33;;;1.20;;
61644;SDS011;47553;52.428;13.382;2023-04-24T07:28:11;3.47;;;1.40;;
61644;SDS011;47553;52.428;13.382;2023-04-24T07:32:14;2.65;;;1.10;;
61644;SDS011;47553;52.428;13.382;2023-04-24T07:34:16;2.80;;;1.10;;
61644;SDS011;47553;52.428;13.382;2023-04-24T07:36:19;3.45;;;1.02;;
61644;SDS011;47553;52.428;13.382;2023-04-24T07:38:20;3.78;;;1.30;;
61644;SDS011;47553;52.428;13.382;2023-04-24T07:42:23;4.03;;;1.27;;
61644;SDS011;47553;52.428;13.382;2023-04-24T07:44:24;4.35;;;1.55;;
61644;SDS011;47553;52.428;13.382;2023-04-24T07:46:27;3.63;;;1.00;;
61644;SDS011;47553;52.428;13.382;2023-04-24T07:48:28;2.83;;;1.15;;
61644;SDS011;47553;52.428;13.382;2023-04-24T07:52:33;3.70;;;1.38;;
61644;SDS011;47553;52.428;13.382;2023-04-24T07:54:34;3.38;;;1.23;;
61644;SDS011;47553;52.428;13.382;2023-04-24T07:56:36;3.30;;;1.30;;
61644;SDS011;47553;52.428;13.382;2023-04-24T07:58:39;3.28;;;1.33;;
61644;SDS011;47553;52.428;13.382;2023-04-24T08:00:40;4.22;;;1.20;;
61644;SDS011;47553;52.428;13.382;2023-04-24T08:04:43;3.35;;;1.23;;
61644;SDS011;47553;52.428;13.382;2023-04-24T08:06:46;4.05;;;1.33;;
61644;SDS011;47553;52.428;13.382;2023-04-24T08:08:49;5.38;;;1.30;;
61644;SDS011;47553;52.428;13.382;2023-04-24T08:10:51;4.75;;;1.50;;
61644;SDS011;47553;52.428;13.382;2023-04-24T08:14:54;3.45;;;1.35;;
61644;SDS011;47553;52.428;13.382;2023-04-24T08:18:57;2.95;;;1.27;;
61644;SDS011;47553;52.428;13.382;2023-04-24T08:22:59;3.83;;;1.50;;
61644;SDS011;47553;52.428;13.382;2023-04-24T08:27:04;3.72;;;1.30;;
61644;SDS011;47553;52.428;13.382;2023-04-24T08:29:06;4.40;;;1.60;;
61644;SDS011;47553;52.428;13.382;2023-04-24T08:33:09;3.97;;;1.40;;
61644;SDS011;47553;52.428;13.382;2023-04-24T08:35:10;4.10;;;1.27;;
61644;SDS011;47553;52.428;13.382;2023-04-24T08:39:13;4.60;;;1.40;;
61644;SDS011;47553;52.428;13.382;2023-04-24T08:41:17;4.50;;;1.30;;
61644;SDS011;47553;52.428;13.382;2023-04-24T08:43:20;3.20;;;1.30;;
61644;SDS011;47553;52.428;13.382;2023-04-24T08:45:23;4.85;;;1.25;;
61644;SDS011;47553;52.428;13.382;2023-04-24T08:47:24;3.97;;;1.40;;
61644;SDS011;47553;52.428;13.382;2023-04-24T08:49:27;4.70;;;1.42;;
61644;SDS011;47553;52.428;13.382;2023-04-24T08:51:29;3.85;;;1.30;;
61644;SDS011;47553;52.428;13.382;2023-04-24T08:53:32;3.08;;;1.27;;
61644;SDS011;47553;52.428;13.382;2023-04-24T08:55:34;2.67;;;1.20;;
61644;SDS011;47553;52.428;13.382;2023-04-24T08:57:38;5.20;;;1.58;;
61644;SDS011;47553;52.428;13.382;2023-04-24T08:59:40;3.70;;;1.30;;
61644;SDS011;47553;52.428;13.382;2023-04-24T09:01:43;3.25;;;1.33;;
61644;SDS011;47553;52.428;13.382;2023-04-24T09:03:47;4.72;;;1.50;;
61644;SDS011;47553;52.428;13.382;2023-04-24T09:05:50;3.72;;;1.30;;
61644;SDS011;47553;52.428;13.382;2023-04-24T09:07:54;4.28;;;1.30;;
61644;SDS011;47553;52.428;13.382;2023-04-24T09:09:56;4.72;;;1.38;;
61644;SDS011;47553;52.428;13.382;2023-04-24T09:11:58;5.72;;;2.63;;
61644;SDS011;47553;52.428;13.382;2023-04-24T09:14:02;5.00;;;1.30;;
61644;SDS011;47553;52.428;13.382;2023-04-24T09:16:05;4.28;;;1.30;;
61644;SDS011;47553;52.428;13.382;2023-04-24T09:18:06;5.18;;;1.30;;
61644;SDS011;47553;52.428;13.382;2023-04-24T09:20:08;6.95;;;1.70;;
61644;SDS011;47553;52.428;13.382;2023-04-24T09:22:10;4.38;;;1.20;;
61644;SDS011;47553;52.428;13.382;2023-04-24T09:24:14;3.17;;;1.17;;
61644;SDS011;47553;52.428;13.382;2023-04-24T09:26:17;5.43;;;1.20;;
61644;SDS011;47553;52.428;13.382;2023-04-24T09:28:19;5.03;;;1.42;;
61644;SDS011;47553;52.428;13.382;2023-04-24T09:30:28;4.10;;;1.35;;
61644;SDS011;47553;52.428;13.382;2023-04-24T09:32:29;4.10;;;1.20;;
61644;SDS011;47553;52.428;13.382;2023-04-24T09:34:31;4.05;;;1.20;;
61644;SDS011;47553;52.428;13.382;2023-04-24T09:38:35;3.78;;;1.13;;
61644;SDS011;47553;52.428;13.382;2023-04-24T09:40:37;2.35;;;0.80;;
61644;SDS011;47553;52.428;13.382;2023-04-24T09:42:44;3.83;;;1.10;;
61644;SDS011;47553;52.428;13.382;2023-04-24T09:44:47;3.05;;;1.20;;
61644;SDS011;47553;52.428;13.382;2023-04-24T09:46:52;2.80;;;1.10;;
61644;SDS011;47553;52.428;13.382;2023-04-24T09:48:55;5.78;;;1.20;;
61644;SDS011;47553;52.428;13.382;2023-04-24T09:52:59;3.10;;;1.05;;
61644;SDS011;47553;52.428;13.382;2023-04-24T09:55:07;4.75;;;1.20;;
61644;SDS011;47553;52.428;13.382;2023-04-24T09:57:14;3.60;;;1.20;;
61644;SDS011;47553;52.428;13.382;2023-04-24T09:59:16;3.80;;;1.25;;
61644;SDS011;47553;52.428;13.382;2023-04-24T10:01:28;3.08;;;1.30;;
61644;SDS011;47553;52.428;13.382;2023-04-24T10:03:33;7.15;;;2.17;;
61644;SDS011;47553;52.428;13.382;2023-04-24T10:05:36;6.25;;;2.53;;
61644;SDS011;47553;52.428;13.382;2023-04-24T10:07:38;5.13;;;1.60;;
61644;SDS011;47553;52.428;13.382;2023-04-24T10:11:41;7.82;;;2.67;;
61644;SDS011;47553;52.428;13.382;2023-04-24T10:13:44;16.25;;;5.20;;
61644;SDS011;47553;52.428;13.382;2023-04-24T10:15:45;6.35;;;2.17;;
61644;SDS011;47553;52.428;13.382;2023-04-24T10:17:49;5.63;;;1.30;;
61644;SDS011;47553;52.428;13.382;2023-04-24T10:19:53;4.18;;;1.50;;
61644;SDS011;47553;52.428;13.382;2023-04-24T10:21:55;4.97;;;1.67;;
61644;SDS011;47553;52.428;13.382;2023-04-24T10:23:58;4.60;;;1.70;;
61644;SDS011;47553;52.428;13.382;2023-04-24T10:26:00;3.38;;;1.13;;
61644;SDS011;47553;52.428;13.382;2023-04-24T10:28:02;3.28;;;1.10;;
61644;SDS011;47553;52.428;13.382;2023-04-24T10:30:05;4.25;;;1.20;;
61644;SDS011;47553;52.428;13.382;2023-04-24T10:32:07;7.55;;;3.20;;
61644;SDS011;47553;52.428;13.382;2023-04-24T10:36:12;6.10;;;2.10;;
61644;SDS011;47553;52.428;13.382;2023-04-24T10:38:16;2.53;;;0.98;;
61644;SDS011;47553;52.428;13.382;2023-04-24T10:40:25;2.85;;;0.98;;
61644;SDS011;47553;52.428;13.382;2023-04-24T10:42:28;3.78;;;1.00;;
61644;SDS011;47553;52.428;13.382;2023-04-24T10:46:37;2.97;;;1.08;;
61644;SDS011;47553;52.428;13.382;2023-04-24T10:48:42;3.08;;;0.90;;
61644;SDS011;47553;52.428;13.382;2023-04-24T10:50:44;2.90;;;1.10;;
61644;SDS011;47553;52.428;13.382;2023-04-24T10:52:49;3.03;;;1.00;;
61644;SDS011;47553;52.428;13.382;2023-04-24T10:54:50;2.85;;;1.10;;
61644;SDS011;47553;52.428;13.382;2023-04-24T10:58:54;3.30;;;1.10;;
61644;SDS011;47553;52.428;13.382;2023-04-24T11:02:57;4.13;;;1.20;;
61644;SDS011;47553;52.428;13.382;2023-04-24T11:05:01;3.30;;;1.27;;
61644;SDS011;47553;52.428;13.382;2023-04-24T11:07:04;4.25;;;1.17;;
61644;SDS011;47553;52.428;13.382;2023-04-24T11:09:08;3.25;;;1.10;;
61644;SDS011;47553;52.428;13.382;2023-04-24T11:11:11;4.05;;;1.40;;
61644;SDS011;47553;52.428;13.382;2023-04-24T11:13:14;3.65;;;1.50;;
61644;SDS011;47553;52.428;13.382;2023-04-24T11:15:16;2.90;;;1.13;;
61644;SDS011;47553;52.428;13.382;2023-04-24T11:17:27;5.85;;;1.30;;
61644;SDS011;47553;52.428;13.382;2023-04-24T11:19:30;3.40;;;1.17;;
61644;SDS011;47553;52.428;13.382;2023-04-24T11:23:39;3.20;;;1.20;;
61644;SDS011;47553;52.428;13.382;2023-04-24T11:27:44;4.38;;;1.30;;
61644;SDS011;47553;52.428;13.382;2023-04-24T11:29:46;2.80;;;1.08;;
61644;SDS011;47553;52.428;13.382;2023-04-24T11:31:49;3.17;;;1.00;;
61644;SDS011;47553;52.428;13.382;2023-04-24T11:35:53;3.13;;;1.08;;
61644;SDS011;47553;52.428;13.382;2023-04-24T11:37:55;3.83;;;1.10;;
61644;SDS011;47553;52.428;13.382;2023-04-24T11:40:00;4.97;;;1.35;;
61644;SDS011;47553;52.428;13.382;2023-04-24T11:42:04;3.45;;;1.05;;
61644;SDS011;47553;52.428;13.382;2023-04-24T11:44:06;2.97;;;1.13;;
61644;SDS011;47553;52.428;13.382;2023-04-24T11:46:09;4.13;;;1.00;;
61644;SDS011;47553;52.428;13.382;2023-04-24T11:48:11;5.28;;;1.20;;
61644;SDS011;47553;52.428;13.382;2023-04-24T11:50:13;2.97;;;1.13;;
61644;SDS011;47553;52.428;13.382;2023-04-24T11:52:16;3.65;;;1.30;;
61644;SDS011;47553;52.428;13.382;2023-04-24T11:54:18;2.55;;;0.95;;
61644;SDS011;47553;52.428;13.382;2023-04-24T11:58:23;2.97;;;1.35;;
61644;SDS011;47553;52.428;13.382;2023-04-24T12:00:25;4.00;;;1.30;;
61644;SDS011;47553;52.428;13.382;2023-04-24T12:02:27;5.85;;;1.38;;
61644;SDS011;47553;52.428;13.382;2023-04-24T12:04:37;3.92;;;1.40;;
61644;SDS011;47553;52.428;13.382;2023-04-24T12:06:40;2.90;;;1.15;;
61644;SDS011;47553;52.428;13.382;2023-04-24T12:08:59;3.22;;;1.30;;
61644;SDS011;47553;52.428;13.382;2023-04-24T12:11:14;3.58;;;1.20;;
61644;SDS011;47553;52.428;13.382;2023-04-24T12:13:16;3.50;;;1.40;;
61644;SDS011;47553;52.428;13.382;2023-04-24T12:17:25;3.08;;;1.20;;
61644;SDS011;47553;52.428;13.382;2023-04-24T12:19:29;3.50;;;1.30;;
61644;SDS011;47553;52.428;13.382;2023-04-24T12:21:31;3.33;;;1.30;;
61644;SDS011;47553;52.428;13.382;2023-04-24T12:25:34;3.75;;;1.30;;
61644;SDS011;47553;52.428;13.382;2023-04-24T12:29:37;3.20;;;1.00;;
61644;SDS011;47553;52.428;13.382;2023-04-24T12:31:53;4.43;;;1.27;;
61644;SDS011;47553;52.428;13.382;2023-04-24T12:33:57;4.78;;;1.30;;
61644;SDS011;47553;52.428;13.382;2023-04-24T12:38:07;3.60;;;1.10;;
61644;SDS011;47553;52.428;13.382;2023-04-24T12:40:10;2.78;;;1.00;;
61644;SDS011;47553;52.428;13.382;2023-04-24T12:42:13;2.75;;;1.05;;
61644;SDS011;47553;52.428;13.382;2023-04-24T12:44:14;3.50;;;1.00;;
61644;SDS011;47553;52.428;13.382;2023-04-24T12:48:21;3.45;;;1.17;;
61644;SDS011;47553;52.428;13.382;2023-04-24T12:50:23;3.65;;;1.20;;
61644;SDS011;47553;52.428;13.382;2023-04-24T12:52:24;3.67;;;1.20;;
61644;SDS011;47553;52.428;13.382;2023-04-24T12:54:31;2.78;;;1.05;;
61644;SDS011;47553;52.428;13.382;2023-04-24T12:56:33;4.43;;;1.33;;
61644;SDS011;47553;52.428;13.382;2023-04-24T13:00:36;3.65;;;1.30;;
61644;SDS011;47553;52.428;13.382;2023-04-24T13:02:39;3.75;;;1.40;;
61644;SDS011;47553;52.428;13.382;2023-04-24T13:04:42;4.28;;;1.30;;
61644;SDS011;47553;52.428;13.382;2023-04-24T13:06:45;3.70;;;1.38;;
61644;SDS011;47553;52.428;13.382;2023-04-24T13:10:48;3.88;;;1.40;;
61644;SDS011;47553;52.428;13.382;2023-04-24T13:12:49;3.67;;;1.35;;
61644;SDS011;47553;52.428;13.382;2023-04-24T13:16:52;3.47;;;1.30;;
61644;SDS011;47553;52.428;13.382;2023-04-24T13:18:54;4.05;;;1.40;;
61644;SDS011;47553;52.428;13.382;2023-04-24T13:22:58;3.47;;;1.50;;
61644;SDS011;47553;52.428;13.382;2023-04-24T13:27:01;3.75;;;1.35;;
61644;SDS011;47553;52.428;13.382;2023-04-24T13:29:03;3.58;;;1.70;;
61644;SDS011;47553;52.428;13.382;2023-04-24T13:33:06;3.30;;;1.30;;
61644;SDS011;47553;52.428;13.382;2023-04-24T13:35:08;3.78;;;1.40;;
61644;SDS011;47553;52.428;13.382;2023-04-24T13:37:11;4.50;;;1.50;;
61644;SDS011;47553;52.428;13.382;2023-04-24T13:39:12;6.03;;;1.85;;
61644;SDS011;47553;52.428;13.382;2023-04-24T13:41:14;3.90;;;1.50;;
61644;SDS011;47553;52.428;13.382;2023-04-24T13:43:16;3.80;;;1.25;;
61644;SDS011;47553;52.428;13.382;2023-04-24T13:45:17;3.50;;;1.40;;
61644;SDS011;47553;52.428;13.382;2023-04-24T13:47:26;4.45;;;1.52;;
61644;SDS011;47553;52.428;13.382;2023-04-24T13:49:28;5.07;;;1.50;;
61644;SDS011;47553;52.428;13.382;2023-04-24T13:51:29;6.82;;;1.70;;
61644;SDS011;47553;52.428;13.382;2023-04-24T13:53:33;5.13;;;1.80;;
61644;SDS011;47553;52.428;13.382;2023-04-24T13:55:34;4.25;;;1.25;;
61644;SDS011;47553;52.428;13.382;2023-04-24T13:57:36;4.78;;;1.88;;
61644;SDS011;47553;52.428;13.382;2023-04-24T13:59:37;4.53;;;1.52;;
61644;SDS011;47553;52.428;13.382;2023-04-24T14:03:41;3.90;;;1.55;;
61644;SDS011;47553;52.428;13.382;2023-04-24T14:05:43;3.97;;;1.38;;
61644;SDS011;47553;52.428;13.382;2023-04-24T14:07:44;9.88;;;1.90;;
61644;SDS011;47553;52.428;13.382;2023-04-24T14:09:47;4.13;;;1.67;;
61644;SDS011;47553;52.428;13.382;2023-04-24T14:11:49;5.88;;;2.00;;
61644;SDS011;47553;52.428;13.382;2023-04-24T14:13:52;5.78;;;2.22;;
61644;SDS011;47553;52.428;13.382;2023-04-24T14:15:55;5.32;;;2.15;;
61644;SDS011;47553;52.428;13.382;2023-04-24T14:17:57;5.30;;;1.90;;
61644;SDS011;47553;52.428;13.382;2023-04-24T14:22:00;4.80;;;2.00;;
61644;SDS011;47553;52.428;13.382;2023-04-24T14:24:01;5.63;;;1.88;;
61644;SDS011;47553;52.428;13.382;2023-04-24T14:28:05;4.63;;;2.00;;
61644;SDS011;47553;52.428;13.382;2023-04-24T14:32:09;5.65;;;1.98;;
61644;SDS011;47553;52.428;13.382;2023-04-24T14:36:12;4.50;;;1.88;;
61644;SDS011;47553;52.428;13.382;2023-04-24T14:38:14;4.45;;;1.70;;
61644;SDS011;47553;52.428;13.382;2023-04-24T14:40:15;4.70;;;1.90;;
61644;SDS011;47553;52.428;13.382;2023-04-24T14:42:22;3.80;;;1.60;;
61644;SDS011;47553;52.428;13.382;2023-04-24T14:44:24;4.57;;;1.75;;
61644;SDS011;47553;52.428;13.382;2023-04-24T14:46:25;3.60;;;1.90;;
61644;SDS011;47553;52.428;13.382;2023-04-24T14:50:28;3.67;;;1.50;;
61644;SDS011;47553;52.428;13.382;2023-04-24T14:52:33;3.53;;;1.45;;
61644;SDS011;47553;52.428;13.382;2023-04-24T14:54:37;4.63;;;1.80;;
61644;SDS011;47553;52.428;13.382;2023-04-24T14:58:41;5.10;;;1.60;;